Sky Acres, Vermont
Current Conditions -  °F | °C
As of 7:51 AM on Monday 20 Oct 2014 (Local Time) from KMPV Reporting Station
Clear Clear  
Wind Chill: 31°   Ceiling: Unl
Heat Index: 31°   Visibility: 10mi
Dew Point: 28°   Wind: 0mph
Humidity: 89%   Direction: NA
Pressure: 30"   Gusts: NA
Location:  44.0671°N, 72.4216°W
Report Text: KMPV 201151Z AUTO 00000KT 10SM CLR M01/M02 A3000 RMK AO2 SLP174 70006 T10061022 10017 21011 51003 $
Loading
Personal Weather Stations






























Interactive Weather Map
Tropical Storm Tracking
New forecast layout! Learn more

10-Day Weather Forecast

Advertisements
Track Severe Weather on mobile